LYBE/BEG METAR and TAF weather

Enter ICAO airport designator
Example: see airport list
Station Type Date Time Source
LYBE METAR 2016/09/30 01:00 UTC NOAA

LYBE 300100Z 03003KT CAVOK 11/09 Q1021 NOSIG


Station Type Date Time Source
LYBE Decoded METAR 2016/09/30 01:00 UTC NOAA

Beograd / Surcin, Serbia and Montenegro (LYBE) 44-49N 020-17E 99M
Sep 29, 2016 - 09:00 PM EDT / 2016.09.30 0100 UTC
Wind: from the NNE (030 degrees) at 3 MPH (3 KT):0
Visibility: greater than 7 mile(s):0
Temperature: 51 F (11 C)
Dew Point: 48 F (9 C)
Relative Humidity: 87%
Pressure (altimeter): 30.15 in. Hg (1021 hPa)
ob: LYBE 300100Z 03003KT CAVOK 11/09 Q1021 NOSIG
cycle: 1

Station Type Date Time Source
LYBE TAF 2016/09/29 18:30 UTC NOAA

TAF LYBE 291700Z 2918/3018 18003KT CAVOK TX24/3013Z TN09/3004Z